Time;durP1;ratioP1;P1;durP2;ratioP2;P2;SDS_P1;SDS_P2;PMS_P1;PMS_P2;Temp;Humidity;BMP_temperature;BMP_pressure;BME280_temperature;BME280_humidity;BME280_pressure;Samples;Min_cycle;Max_cycle;Signal;HPM_P1;HPM_P2
2024/02/16 00:01:50;;;;;;;5.03;4.37;;;;;;;;;;5114325;28;20200;-90
2024/02/16 00:04:19;;;;;;;4.43;3.47;;;;;;;;;;5116641;28;20200;-90
2024/02/16 00:06:48;;;;;;;4.77;3.83;;;;;;;;;;5116446;28;20223;-89
2024/02/16 00:09:15;;;;;;;5.47;4.07;;;;;;;;;;5116665;28;20203;-90
2024/02/16 00:11:43;;;;;;;5.13;4.63;;;;;;;;;;5116558;28;20199;-90
2024/02/16 00:14:10;;;;;;;4.80;3.90;;;;;;;;;;5106311;28;20193;-90
2024/02/16 00:16:37;;;;;;;4.83;4.20;;;;;;;;;;5095442;28;20231;-90
2024/02/16 00:19:04;;;;;;;5.23;4.73;;;;;;;;;;5095380;28;20193;-89
2024/02/16 00:21:32;;;;;;;4.67;4.20;;;;;;;;;;5095827;28;20204;-90
2024/02/16 00:23:59;;;;;;;7.47;4.83;;;;;;;;;;5095775;28;20200;-89
2024/02/16 00:26:25;;;;;;;4.67;4.07;;;;;;;;;;5095407;28;20224;-89
2024/02/16 00:28:52;;;;;;;5.60;4.40;;;;;;;;;;5095594;28;20200;-90
2024/02/16 00:31:19;;;;;;;4.20;3.80;;;;;;;;;;5094363;28;20295;-89
2024/02/16 00:33:46;;;;;;;4.90;4.37;;;;;;;;;;5096015;28;20228;-89
2024/02/16 00:36:14;;;;;;;5.10;4.40;;;;;;;;;;5095484;28;20196;-90
2024/02/16 00:38:42;;;;;;;5.83;4.53;;;;;;;;;;5094412;28;20669;-89
2024/02/16 00:41:09;;;;;;;5.33;4.50;;;;;;;;;;5093010;28;20196;-89
2024/02/16 00:43:39;;;;;;;4.63;4.23;;;;;;;;;;5075051;28;20246;-89
2024/02/16 00:46:09;;;;;;;4.83;4.33;;;;;;;;;;5075238;28;20223;-89
2024/02/16 00:48:38;;;;;;;5.80;5.20;;;;;;;;;;5078973;28;20208;-89
2024/02/16 00:51:05;;;;;;;5.47;4.97;;;;;;;;;;5094669;28;20261;-90
2024/02/16 00:53:32;;;;;;;5.50;5.00;;;;;;;;;;5095002;28;20208;-90
2024/02/16 00:56:00;;;;;;;7.63;5.63;;;;;;;;;;5094457;28;20658;-90
2024/02/16 00:58:27;;;;;;;6.53;4.90;;;;;;;;;;5095427;28;20200;-89
2024/02/16 01:00:54;;;;;;;6.53;5.63;;;;;;;;;;5094522;28;20204;-89
2024/02/16 01:03:22;;;;;;;6.83;5.00;;;;;;;;;;5095127;28;20204;-89
2024/02/16 01:05:49;;;;;;;6.43;5.73;;;;;;;;;;5095564;28;20219;-89
2024/02/16 01:08:16;;;;;;;6.93;6.17;;;;;;;;;;5107836;28;20267;-89
2024/02/16 01:10:42;;;;;;;8.40;5.67;;;;;;;;;;5114929;28;20195;-90
2024/02/16 01:13:11;;;;;;;8.47;6.40;;;;;;;;;;5115237;28;20199;-90
2024/02/16 01:15:41;;;;;;;9.23;6.07;;;;;;;;;;5115272;28;20287;-90
2024/02/16 01:18:08;;;;;;;6.57;5.97;;;;;;;;;;5115141;28;20204;-92
2024/02/16 01:20:35;;;;;;;5.97;4.90;;;;;;;;;;5074185;28;20204;-89
2024/02/16 01:23:02;;;;;;;8.20;6.07;;;;;;;;;;5088959;28;20204;-90
2024/02/16 01:25:29;;;;;;;7.80;6.13;;;;;;;;;;5094130;28;20188;-89
2024/02/16 01:27:56;;;;;;;8.63;5.40;;;;;;;;;;5101805;28;20195;-89
2024/02/16 01:30:24;;;;;;;15.37;7.50;;;;;;;;;;5115277;28;20196;-89
2024/02/16 01:32:51;;;;;;;6.93;5.20;;;;;;;;;;5114832;28;20264;-89
2024/02/16 01:35:18;;;;;;;5.37;4.83;;;;;;;;;;5114916;28;20203;-89
2024/02/16 01:37:44;;;;;;;6.30;5.30;;;;;;;;;;5114794;28;20199;-90
2024/02/16 01:40:14;;;;;;;7.10;5.00;;;;;;;;;;5114938;28;20199;-89
2024/02/16 01:42:41;;;;;;;6.63;5.00;;;;;;;;;;5114404;28;20294;-89
2024/02/16 01:45:09;;;;;;;5.00;4.50;;;;;;;;;;5114559;28;20294;-91
2024/02/16 01:47:38;;;;;;;5.80;4.93;;;;;;;;;;5114548;28;20302;-91
2024/02/16 01:50:09;;;;;;;6.43;5.20;;;;;;;;;;5104530;28;20196;-89
2024/02/16 01:52:36;;;;;;;5.50;5.00;;;;;;;;;;5093352;28;20197;-90
2024/02/16 01:55:04;;;;;;;7.10;5.23;;;;;;;;;;5093174;28;20197;-90
2024/02/16 01:57:31;;;;;;;4.67;4.23;;;;;;;;;;5104254;28;20191;-90
2024/02/16 01:59:59;;;;;;;5.93;5.33;;;;;;;;;;5114112;28;20198;-90
2024/02/16 02:02:26;;;;;;;5.60;4.53;;;;;;;;;;5114055;28;20718;-89
2024/02/16 02:04:54;;;;;;;6.27;5.63;;;;;;;;;;5114316;28;20199;-89
2024/02/16 02:07:26;;;;;;;6.23;5.63;;;;;;;;;;5113535;28;20603;-90
2024/02/16 02:09:53;;;;;;;6.37;5.73;;;;;;;;;;5114141;28;20233;-90
2024/02/16 02:12:20;;;;;;;7.73;5.80;;;;;;;;;;5114110;28;20203;-90
2024/02/16 02:14:47;;;;;;;7.63;6.33;;;;;;;;;;5113026;28;20199;-90
2024/02/16 02:17:14;;;;;;;9.80;5.50;;;;;;;;;;5114046;28;20230;-89
2024/02/16 02:19:41;;;;;;;7.03;6.00;;;;;;;;;;5113941;28;20256;-90
2024/02/16 02:22:15;;;;;;;8.67;5.93;;;;;;;;;;5095857;28;20204;-90
2024/02/16 02:24:42;;;;;;;6.87;6.17;;;;;;;;;;5107025;28;20237;-90
2024/02/16 02:27:08;;;;;;;7.03;6.33;;;;;;;;;;5097235;28;20228;-90
2024/02/16 02:29:35;;;;;;;9.83;6.73;;;;;;;;;;5073396;28;20204;-90
2024/02/16 02:32:02;;;;;;;7.47;6.03;;;;;;;;;;5072496;28;20197;-89
2024/02/16 02:34:29;;;;;;;7.47;5.63;;;;;;;;;;5073293;28;20205;-90
2024/02/16 02:36:56;;;;;;;7.20;6.40;;;;;;;;;;5073322;28;20200;-89
2024/02/16 02:39:24;;;;;;;8.90;6.37;;;;;;;;;;5092519;28;20203;-90
2024/02/16 02:41:51;;;;;;;7.80;6.03;;;;;;;;;;5093645;28;20188;-90
2024/02/16 02:44:19;;;;;;;5.97;5.00;;;;;;;;;;5093296;28;20196;-90
2024/02/16 02:46:46;;;;;;;4.93;4.43;;;;;;;;;;5093227;28;20226;-90
2024/02/16 02:49:12;;;;;;;6.93;5.43;;;;;;;;;;5093445;28;20200;-90
2024/02/16 02:51:39;;;;;;;5.53;5.03;;;;;;;;;;5093162;28;20200;-90
2024/02/16 02:54:09;;;;;;;10.77;5.63;;;;;;;;;;5092182;28;20532;-90
2024/02/16 02:56:40;;;;;;;4.83;4.13;;;;;;;;;;5103935;28;20722;-90
2024/02/16 02:59:07;;;;;;;6.10;5.07;;;;;;;;;;5096926;28;20227;-90
2024/02/16 03:01:37;;;;;;;4.87;4.30;;;;;;;;;;5092418;28;20203;-90
2024/02/16 03:04:07;;;;;;;5.27;4.77;;;;;;;;;;5092909;28;20221;-90
2024/02/16 03:06:34;;;;;;;6.73;4.43;;;;;;;;;;5093372;28;20721;-89
2024/02/16 03:09:01;;;;;;;4.93;4.30;;;;;;;;;;5091933;28;20201;-90
2024/02/16 03:11:27;;;;;;;6.00;5.37;;;;;;;;;;5092678;28;20682;-90
2024/02/16 03:13:56;;;;;;;5.20;4.70;;;;;;;;;;5093247;28;20227;-90
2024/02/16 03:16:22;;;;;;;6.53;4.60;;;;;;;;;;5093053;28;20204;-90
2024/02/16 03:18:49;;;;;;;5.13;4.63;;;;;;;;;;5096770;28;20195;-89
2024/02/16 03:21:17;;;;;;;6.97;5.53;;;;;;;;;;5097469;28;20203;-89
2024/02/16 03:23:44;;;;;;;5.27;4.77;;;;;;;;;;5095842;28;20220;-90
2024/02/16 03:26:15;;;;;;;5.13;4.63;;;;;;;;;;5096280;28;20606;-90
2024/02/16 03:28:46;;;;;;;5.60;5.10;;;;;;;;;;5096460;28;20227;-90
2024/02/16 03:31:18;;;;;;;6.23;5.13;;;;;;;;;;5096620;28;20253;-90
2024/02/16 03:33:44;;;;;;;6.20;5.20;;;;;;;;;;5096918;28;20224;-89
2024/02/16 03:36:12;;;;;;;4.80;4.40;;;;;;;;;;5097900;28;20200;-90
2024/02/16 03:38:39;;;;;;;5.17;4.70;;;;;;;;;;5095660;28;20257;-90
2024/02/16 03:41:09;;;;;;;5.03;4.50;;;;;;;;;;5096609;28;20231;-90
2024/02/16 03:43:36;;;;;;;6.97;5.57;;;;;;;;;;5095722;28;20207;-89
2024/02/16 03:46:03;;;;;;;7.47;4.67;;;;;;;;;;5094107;28;20207;-89
2024/02/16 03:48:31;;;;;;;5.97;5.37;;;;;;;;;;5076957;28;20246;-90
2024/02/16 03:50:58;;;;;;;6.97;4.73;;;;;;;;;;5074869;28;20205;-90
2024/02/16 03:53:25;;;;;;;11.77;7.90;;;;;;;;;;5075778;28;20208;-90
2024/02/16 03:55:52;;;;;;;8.00;5.77;;;;;;;;;;5081364;28;20196;-90
2024/02/16 03:58:19;;;;;;;4.97;4.47;;;;;;;;;;5094977;28;20255;-90
2024/02/16 04:00:45;;;;;;;6.60;5.17;;;;;;;;;;5095755;28;20200;-91
2024/02/16 04:03:12;;;;;;;5.10;4.70;;;;;;;;;;5096830;28;20261;-90
2024/02/16 04:05:41;;;;;;;4.33;3.87;;;;;;;;;;5096026;28;20211;-90
2024/02/16 04:08:08;;;;;;;4.60;3.83;;;;;;;;;;5096276;28;20220;-90
2024/02/16 04:10:35;;;;;;;3.90;3.53;;;;;;;;;;5096112;28;20674;-91
2024/02/16 04:13:02;;;;;;;4.20;3.60;;;;;;;;;;5096256;28;20261;-90
2024/02/16 04:15:29;;;;;;;4.13;3.60;;;;;;;;;;5096193;28;20192;-91
2024/02/16 04:17:56;;;;;;;4.27;3.87;;;;;;;;;;5095893;28;20196;-90
2024/02/16 04:20:24;;;;;;;4.37;3.93;;;;;;;;;;5096108;28;20197;-90
2024/02/16 04:22:52;;;;;;;4.40;3.80;;;;;;;;;;5096539;28;20204;-91
2024/02/16 04:25:19;;;;;;;4.67;4.27;;;;;;;;;;5093007;28;20732;-90
2024/02/16 04:27:46;;;;;;;4.60;4.10;;;;;;;;;;5080476;28;20227;-90
2024/02/16 04:30:13;;;;;;;4.20;3.60;;;;;;;;;;5094497;28;20732;-91
2024/02/16 04:32:39;;;;;;;6.50;4.10;;;;;;;;;;5117219;28;20580;-90
2024/02/16 04:35:11;;;;;;;4.47;3.97;;;;;;;;;;5102949;28;20194;-90
2024/02/16 04:37:39;;;;;;;4.13;3.73;;;;;;;;;;5075767;28;20196;-88
2024/02/16 04:40:11;;;;;;;5.53;4.57;;;;;;;;;;5074219;28;20287;-85
2024/02/16 04:42:40;;;;;;;3.77;3.43;;;;;;;;;;5074880;28;20203;-85
2024/02/16 04:45:08;;;;;;;5.57;3.60;;;;;;;;;;5077212;28;20270;-84
2024/02/16 04:47:35;;;;;;;6.07;4.83;;;;;;;;;;5093816;28;20728;-83
2024/02/16 04:50:02;;;;;;;4.37;3.97;;;;;;;;;;5094115;28;20196;-83
2024/02/16 04:52:29;;;;;;;5.40;4.23;;;;;;;;;;5093726;28;20196;-83
2024/02/16 04:54:55;;;;;;;4.67;4.27;;;;;;;;;;5094694;28;20558;-82
2024/02/16 04:57:23;;;;;;;6.23;4.93;;;;;;;;;;5093025;28;20215;-83
2024/02/16 04:59:50;;;;;;;4.47;4.00;;;;;;;;;;5093636;28;20212;-85
2024/02/16 05:02:17;;;;;;;4.43;3.63;;;;;;;;;;5082727;28;20279;-83
2024/02/16 05:04:44;;;;;;;5.43;4.13;;;;;;;;;;5079403;28;20188;-82
2024/02/16 05:07:11;;;;;;;4.83;3.87;;;;;;;;;;5082272;28;20225;-83
2024/02/16 05:09:39;;;;;;;4.33;3.93;;;;;;;;;;5103471;28;20242;-84
2024/02/16 05:12:10;;;;;;;4.80;4.30;;;;;;;;;;5089089;28;20232;-84
2024/02/16 05:14:38;;;;;;;5.57;4.60;;;;;;;;;;5073620;28;20236;-83
2024/02/16 05:17:07;;;;;;;4.90;4.40;;;;;;;;;;5073651;28;20209;-82
2024/02/16 05:19:36;;;;;;;5.50;3.97;;;;;;;;;;5074699;28;20271;-83
2024/02/16 05:22:03;;;;;;;5.23;4.17;;;;;;;;;;5089402;28;20219;-83
2024/02/16 05:24:30;;;;;;;4.57;3.73;;;;;;;;;;5072308;28;20663;-84
2024/02/16 05:26:57;;;;;;;5.77;4.43;;;;;;;;;;5088013;28;20682;-81
2024/02/16 05:29:24;;;;;;;4.03;3.67;;;;;;;;;;5090692;28;20208;-83
2024/02/16 05:31:53;;;;;;;4.10;3.43;;;;;;;;;;5072688;28;20201;-82
2024/02/16 05:34:20;;;;;;;4.80;4.37;;;;;;;;;;5081241;28;20280;-82
2024/02/16 05:36:47;;;;;;;4.83;4.20;;;;;;;;;;5113248;28;20256;-81
2024/02/16 05:39:26;;;;;;;4.90;4.40;;;;;;;;;;5113177;28;20203;-81
2024/02/16 05:41:53;;;;;;;4.17;3.77;;;;;;;;;;5093283;28;20194;-81
2024/02/16 05:44:20;;;;;;;5.73;4.40;;;;;;;;;;5092279;28;20555;-80
2024/02/16 05:46:47;;;;;;;8.10;4.90;;;;;;;;;;5097175;28;20215;-81
2024/02/16 05:49:15;;;;;;;5.20;4.40;;;;;;;;;;5081894;28;20279;-81
2024/02/16 05:51:59;;;;;;;6.20;5.23;;;;;;;;;;5092126;28;20286;-81
2024/02/16 05:54:26;;;;;;;4.93;4.43;;;;;;;;;;5093238;28;20199;-80
2024/02/16 05:56:53;;;;;;;5.83;4.50;;;;;;;;;;5092552;28;20200;-81
2024/02/16 05:59:20;;;;;;;8.23;4.87;;;;;;;;;;5092337;28;20200;-81
2024/02/16 06:01:47;;;;;;;5.30;4.50;;;;;;;;;;5092602;28;20206;-80
2024/02/16 06:04:15;;;;;;;6.77;4.87;;;;;;;;;;5096965;28;20199;-82
2024/02/16 06:06:42;;;;;;;5.30;4.73;;;;;;;;;;5070865;28;20193;-81
2024/02/16 06:09:09;;;;;;;8.50;5.17;;;;;;;;;;5086786;28;20237;-83
2024/02/16 06:11:38;;;;;;;5.20;4.57;;;;;;;;;;5090958;28;20196;-81
2024/02/16 06:14:07;;;;;;;7.80;5.20;;;;;;;;;;5090779;28;20218;-81
2024/02/16 06:16:34;;;;;;;6.80;4.73;;;;;;;;;;5101438;28;20195;-81
2024/02/16 06:19:00;;;;;;;6.50;4.90;;;;;;;;;;5086292;28;20203;-81
2024/02/16 06:21:31;;;;;;;7.57;4.80;;;;;;;;;;5100987;28;20196;-81
2024/02/16 06:23:57;;;;;;;6.37;5.53;;;;;;;;;;5091259;28;20200;-81
2024/02/16 06:26:24;;;;;;;8.30;4.87;;;;;;;;;;5091815;28;20196;-81
2024/02/16 06:28:51;;;;;;;9.37;4.83;;;;;;;;;;5106110;28;20631;-81
2024/02/16 06:31:18;;;;;;;5.30;4.30;;;;;;;;;;5091509;28;20253;-81
2024/02/16 06:33:44;;;;;;;5.73;5.10;;;;;;;;;;5091586;28;20298;-81
2024/02/16 06:36:11;;;;;;;9.13;5.47;;;;;;;;;;5091219;28;20196;-82
2024/02/16 06:38:39;;;;;;;5.63;4.87;;;;;;;;;;5090621;28;20256;-81
2024/02/16 06:41:07;;;;;;;5.53;4.20;;;;;;;;;;5101734;28;20204;-81
2024/02/16 06:43:34;;;;;;;4.70;4.03;;;;;;;;;;5078245;28;20659;-81
2024/02/16 06:46:01;;;;;;;6.10;4.77;;;;;;;;;;5094036;28;20199;-81
2024/02/16 06:48:28;;;;;;;7.00;5.30;;;;;;;;;;5100631;28;20231;-81
2024/02/16 06:50:55;;;;;;;5.53;4.90;;;;;;;;;;5090967;28;20189;-81
2024/02/16 06:53:22;;;;;;;8.20;5.27;;;;;;;;;;5100760;28;20200;-80
2024/02/16 06:55:51;;;;;;;7.23;4.70;;;;;;;;;;5094579;28;20188;-81
2024/02/16 06:58:18;;;;;;;9.00;5.23;;;;;;;;;;5091341;28;20201;-81
2024/02/16 07:00:44;;;;;;;6.60;5.10;;;;;;;;;;5090772;28;20199;-82
2024/02/16 07:03:11;;;;;;;7.20;5.40;;;;;;;;;;5091067;28;20658;-81
2024/02/16 07:05:39;;;;;;;7.13;5.10;;;;;;;;;;5091014;28;20192;-81
2024/02/16 07:08:07;;;;;;;5.87;4.63;;;;;;;;;;5087360;28;20243;-81
2024/02/16 07:10:34;;;;;;;5.77;4.43;;;;;;;;;;5102798;28;20204;-81
2024/02/16 07:13:03;;;;;;;6.27;5.00;;;;;;;;;;5090927;28;20211;-81
2024/02/16 07:15:30;;;;;;;5.57;4.77;;;;;;;;;;5090609;28;20199;-81
2024/02/16 07:17:56;;;;;;;5.53;5.00;;;;;;;;;;5091413;28;20196;-81
2024/02/16 07:20:23;;;;;;;4.47;4.07;;;;;;;;;;5090774;28;20251;-81
2024/02/16 07:22:51;;;;;;;5.53;4.57;;;;;;;;;;5101434;28;20203;-81
2024/02/16 07:25:18;;;;;;;8.23;5.87;;;;;;;;;;5106872;28;20238;-81
2024/02/16 07:27:44;;;;;;;5.13;4.63;;;;;;;;;;5090398;28;20621;-81
2024/02/16 07:30:13;;;;;;;5.93;4.90;;;;;;;;;;5090297;28;20200;-81
2024/02/16 07:32:40;;;;;;;9.10;7.23;;;;;;;;;;5090720;28;20231;-81
2024/02/16 07:35:07;;;;;;;15.73;13.47;;;;;;;;;;5097065;28;20203;-81
2024/02/16 07:37:34;;;;;;;10.80;7.30;;;;;;;;;;5095908;28;20196;-81
2024/02/16 07:40:01;;;;;;;9.33;7.70;;;;;;;;;;5090634;28;20196;-82
2024/02/16 07:42:28;;;;;;;7.73;5.10;;;;;;;;;;5091324;28;20205;-81
2024/02/16 07:44:54;;;;;;;5.40;4.67;;;;;;;;;;5090468;28;20643;-81
2024/02/16 07:47:23;;;;;;;5.67;3.73;;;;;;;;;;5090607;28;20196;-81
2024/02/16 07:49:50;;;;;;;8.40;6.27;;;;;;;;;;5099415;28;20200;-81
2024/02/16 07:52:17;;;;;;;4.80;4.33;;;;;;;;;;5097637;28;20222;-81
2024/02/16 07:54:44;;;;;;;5.10;4.07;;;;;;;;;;5102923;28;20290;-82
2024/02/16 07:57:10;;;;;;;7.23;4.50;;;;;;;;;;5091972;28;20221;-80
2024/02/16 07:59:40;;;;;;;5.83;4.50;;;;;;;;;;5093143;28;20197;-81
2024/02/16 08:02:09;;;;;;;7.00;5.47;;;;;;;;;;5086323;28;20200;-81
2024/02/16 08:04:41;;;;;;;7.67;5.03;;;;;;;;;;5101657;28;20195;-81
2024/02/16 08:07:07;;;;;;;5.73;5.13;;;;;;;;;;5097305;28;20207;-81
2024/02/16 08:09:34;;;;;;;7.63;6.03;;;;;;;;;;5093870;28;20310;-84
2024/02/16 08:12:05;;;;;;;5.43;4.80;;;;;;;;;;5093778;28;20204;-84
2024/02/16 08:14:34;;;;;;;6.37;4.57;;;;;;;;;;5093021;28;20197;-81
2024/02/16 08:17:00;;;;;;;5.73;4.80;;;;;;;;;;5093314;28;20196;-81
2024/02/16 08:19:33;;;;;;;14.27;8.30;;;;;;;;;;5105696;28;20207;-81
2024/02/16 08:22:01;;;;;;;9.47;7.17;;;;;;;;;;5094270;28;20197;-82
2024/02/16 08:24:28;;;;;;;4.93;4.43;;;;;;;;;;5093605;28;20280;-82
2024/02/16 08:26:56;;;;;;;5.43;4.80;;;;;;;;;;5093936;28;20196;-81
2024/02/16 08:29:23;;;;;;;6.87;5.00;;;;;;;;;;5093684;28;20280;-81
2024/02/16 08:31:50;;;;;;;5.93;4.37;;;;;;;;;;5100483;28;20192;-81
2024/02/16 08:34:17;;;;;;;5.57;3.63;;;;;;;;;;5099821;28;20263;-81
2024/02/16 08:36:45;;;;;;;7.60;4.97;;;;;;;;;;5099469;28;20195;-81
2024/02/16 08:39:13;;;;;;;4.43;4.03;;;;;;;;;;5101243;28;20282;-81
2024/02/16 08:41:40;;;;;;;4.47;4.00;;;;;;;;;;5081361;28;20287;-81
2024/02/16 08:44:09;;;;;;;3.80;3.50;;;;;;;;;;5092639;28;20246;-82
2024/02/16 08:46:38;;;;;;;6.30;4.37;;;;;;;;;;5086888;28;20193;-81
2024/02/16 08:49:06;;;;;;;6.30;4.63;;;;;;;;;;5088691;28;20620;-81
2024/02/16 08:51:33;;;;;;;4.67;4.10;;;;;;;;;;5093281;28;20205;-81
2024/02/16 08:54:01;;;;;;;8.00;5.67;;;;;;;;;;5106457;28;20195;-81
2024/02/16 08:56:29;;;;;;;12.87;8.10;;;;;;;;;;5092770;28;20208;-81
2024/02/16 08:58:56;;;;;;;8.47;6.13;;;;;;;;;;5091804;28;20652;-81
2024/02/16 09:01:31;;;;;;;14.33;8.27;;;;;;;;;;5092803;28;20212;-81
2024/02/16 09:03:58;;;;;;;8.57;5.53;;;;;;;;;;5092789;28;20689;-81
2024/02/16 09:06:25;;;;;;;8.67;6.10;;;;;;;;;;5104035;28;20196;-81
2024/02/16 09:08:51;;;;;;;8.83;5.30;;;;;;;;;;5082981;28;20219;-82
2024/02/16 09:11:18;;;;;;;8.13;5.27;;;;;;;;;;5093138;28;20204;-81
2024/02/16 09:13:47;;;;;;;13.10;7.77;;;;;;;;;;5092344;28;20655;-82
2024/02/16 09:16:13;;;;;;;3.97;3.67;;;;;;;;;;5092741;28;20207;-81
2024/02/16 09:18:43;;;;;;;4.33;3.87;;;;;;;;;;5092469;28;20189;-80
2024/02/16 09:21:10;;;;;;;6.30;4.53;;;;;;;;;;5092625;28;20223;-81
2024/02/16 09:23:40;;;;;;;4.10;3.73;;;;;;;;;;5078620;28;20685;-81
2024/02/16 09:26:09;;;;;;;4.60;4.20;;;;;;;;;;5092400;28;20207;-81
2024/02/16 09:28:40;;;;;;;4.33;3.83;;;;;;;;;;5092101;28;20702;-81
2024/02/16 09:31:09;;;;;;;6.37;4.57;;;;;;;;;;5106420;28;20234;-81
2024/02/16 09:33:38;;;;;;;5.83;4.10;;;;;;;;;;5112700;28;20246;-81
2024/02/16 09:36:06;;;;;;;4.47;4.07;;;;;;;;;;5080678;28;20247;-82
2024/02/16 09:38:33;;;;;;;4.30;3.90;;;;;;;;;;5102703;28;20565;-81
2024/02/16 09:41:01;;;;;;;6.13;4.70;;;;;;;;;;5096489;28;20253;-81
2024/02/16 09:43:29;;;;;;;4.40;4.00;;;;;;;;;;5103926;28;20200;-81
2024/02/16 09:45:56;;;;;;;6.23;3.53;;;;;;;;;;5094438;28;20200;-81
2024/02/16 09:48:27;;;;;;;6.40;4.87;;;;;;;;;;5092983;28;20221;-81
2024/02/16 09:50:55;;;;;;;4.47;4.07;;;;;;;;;;5074219;28;20201;-81
2024/02/16 09:53:24;;;;;;;8.87;7.03;;;;;;;;;;5091907;28;20255;-81
2024/02/16 09:55:51;;;;;;;6.47;5.37;;;;;;;;;;5091742;28;20249;-80
2024/02/16 09:58:18;;;;;;;5.93;4.03;;;;;;;;;;5092073;28;20610;-81
2024/02/16 10:00:49;;;;;;;5.87;4.47;;;;;;;;;;5092085;28;20200;-81
2024/02/16 10:03:25;;;;;;;6.13;4.43;;;;;;;;;;5091512;28;20199;-81
2024/02/16 10:05:52;;;;;;;4.37;3.97;;;;;;;;;;5091653;28;20706;-80
2024/02/16 10:08:19;;;;;;;3.97;3.37;;;;;;;;;;5091773;28;20278;-81
2024/02/16 10:10:46;;;;;;;5.10;4.50;;;;;;;;;;5091292;28;20275;-81
2024/02/16 10:13:13;;;;;;;8.63;5.93;;;;;;;;;;5091539;28;20216;-81
2024/02/16 10:15:40;;;;;;;4.20;3.80;;;;;;;;;;5091617;28;20679;-82
2024/02/16 10:18:09;;;;;;;8.43;6.30;;;;;;;;;;5091338;28;20202;-81
2024/02/16 10:20:41;;;;;;;3.50;3.20;;;;;;;;;;5083772;28;20224;-81
2024/02/16 10:23:09;;;;;;;3.17;2.80;;;;;;;;;;5089799;28;20205;-87
2024/02/16 10:25:40;;;;;;;4.17;3.80;;;;;;;;;;5101878;28;20204;-81
2024/02/16 10:28:08;;;;;;;7.47;3.40;;;;;;;;;;5089870;28;20227;-81
2024/02/16 10:30:37;;;;;;;3.33;3.03;;;;;;;;;;5099880;28;20230;-81
2024/02/16 10:33:04;;;;;;;6.80;6.10;;;;;;;;;;5081412;28;20759;-81
2024/02/16 10:35:33;;;;;;;4.43;3.80;;;;;;;;;;5090804;28;20208;-81
2024/02/16 10:38:04;;;;;;;3.47;2.70;;;;;;;;;;5091220;28;20250;-81
2024/02/16 10:40:32;;;;;;;3.43;3.13;;;;;;;;;;5091295;28;20603;-81
2024/02/16 10:43:03;;;;;;;3.53;3.23;;;;;;;;;;5095902;28;20670;-81
2024/02/16 10:45:31;;;;;;;3.40;3.10;;;;;;;;;;5098917;28;20208;-81
2024/02/16 10:47:58;;;;;;;3.77;3.37;;;;;;;;;;5091396;28;20200;-81
2024/02/16 10:50:25;;;;;;;4.43;3.53;;;;;;;;;;5090935;28;20216;-81
2024/02/16 10:52:53;;;;;;;3.43;3.13;;;;;;;;;;5090710;28;20199;-82
2024/02/16 10:55:21;;;;;;;4.03;3.60;;;;;;;;;;5091004;28;20206;-81
2024/02/16 10:57:48;;;;;;;4.27;3.87;;;;;;;;;;5091302;28;20188;-80
2024/02/16 11:00:18;;;;;;;3.73;3.23;;;;;;;;;;5078758;28;20212;-81
2024/02/16 11:02:56;;;;;;;3.93;3.20;;;;;;;;;;5098995;28;20268;-81
2024/02/16 11:05:34;;;;;;;7.93;3.50;;;;;;;;;;5095880;28;20196;-81
2024/02/16 11:08:14;;;;;;;6.07;4.07;;;;;;;;;;5091304;28;20716;-81
2024/02/16 11:10:55;;;;;;;4.17;3.53;;;;;;;;;;5086253;28;20223;-81
2024/02/16 11:13:25;;;;;;;4.47;3.90;;;;;;;;;;5105530;28;20191;-81
2024/02/16 11:15:57;;;;;;;5.70;3.70;;;;;;;;;;5093829;28;20200;-81
2024/02/16 11:18:26;;;;;;;4.23;3.50;;;;;;;;;;5085171;28;20196;-81
2024/02/16 11:20:54;;;;;;;5.40;3.60;;;;;;;;;;5090985;28;20196;-80
2024/02/16 11:23:26;;;;;;;3.73;3.10;;;;;;;;;;5090992;28;20224;-81
2024/02/16 11:25:54;;;;;;;5.80;5.20;;;;;;;;;;5102803;28;20206;-80
2024/02/16 11:28:23;;;;;;;5.93;4.50;;;;;;;;;;5105905;28;20246;-81
2024/02/16 11:30:50;;;;;;;3.60;3.30;;;;;;;;;;5090703;28;20228;-80
2024/02/16 11:33:17;;;;;;;6.73;5.50;;;;;;;;;;5090918;28;20235;-81
2024/02/16 11:35:53;;;;;;;6.63;5.67;;;;;;;;;;5090813;28;20197;-80
2024/02/16 11:38:20;;;;;;;3.17;2.83;;;;;;;;;;5079096;28;20196;-81
2024/02/16 11:40:56;;;;;;;3.70;3.40;;;;;;;;;;5108718;28;20196;-81
2024/02/16 11:43:23;;;;;;;5.00;4.20;;;;;;;;;;5074219;28;20659;-81
2024/02/16 11:45:50;;;;;;;3.73;3.43;;;;;;;;;;5089650;28;20801;-81
2024/02/16 11:48:21;;;;;;;3.63;2.90;;;;;;;;;;5103724;28;20210;-81
2024/02/16 11:50:48;;;;;;;4.07;3.67;;;;;;;;;;5098330;28;20269;-81
2024/02/16 11:53:18;;;;;;;5.97;3.40;;;;;;;;;;5094363;28;20234;-82
2024/02/16 11:55:47;;;;;;;3.70;3.40;;;;;;;;;;5094588;28;20220;-81
2024/02/16 11:58:17;;;;;;;6.67;3.07;;;;;;;;;;5094069;28;20234;-81
2024/02/16 12:00:44;;;;;;;5.17;3.80;;;;;;;;;;5093963;28;20741;-81
2024/02/16 12:03:10;;;;;;;4.07;3.27;;;;;;;;;;5094139;28;20650;-81
2024/02/16 12:05:39;;;;;;;3.67;3.10;;;;;;;;;;5088463;28;20655;-81
2024/02/16 12:08:10;;;;;;;5.63;3.10;;;;;;;;;;5084397;28;20556;-81
2024/02/16 12:10:39;;;;;;;3.47;2.90;;;;;;;;;;5094058;28;20246;-80
2024/02/16 12:13:07;;;;;;;5.40;3.47;;;;;;;;;;5093871;28;20204;-81
2024/02/16 12:15:35;;;;;;;5.60;3.17;;;;;;;;;;5078220;28;20192;-81
2024/02/16 12:18:02;;;;;;;3.67;3.37;;;;;;;;;;5093880;28;20205;-81
2024/02/16 12:20:30;;;;;;;6.27;2.73;;;;;;;;;;5093528;28;20670;-81
2024/02/16 12:22:58;;;;;;;2.97;2.60;;;;;;;;;;5107510;28;20199;-81
2024/02/16 12:25:25;;;;;;;5.33;3.63;;;;;;;;;;5091985;28;20207;-81
2024/02/16 12:27:52;;;;;;;2.67;2.47;;;;;;;;;;5107224;28;20216;-81
2024/02/16 12:30:19;;;;;;;4.40;4.00;;;;;;;;;;5101971;28;20222;-81
2024/02/16 12:32:47;;;;;;;3.13;2.83;;;;;;;;;;5098336;28;20228;-85
2024/02/16 12:35:14;;;;;;;3.97;3.60;;;;;;;;;;5102566;28;20195;-81
2024/02/16 12:37:41;;;;;;;5.27;3.40;;;;;;;;;;5097796;28;20203;-81
2024/02/16 12:40:11;;;;;;;3.27;2.97;;;;;;;;;;5093176;28;20196;-81
2024/02/16 12:42:39;;;;;;;4.37;3.07;;;;;;;;;;5105031;28;20230;-81
2024/02/16 12:45:10;;;;;;;3.17;2.87;;;;;;;;;;5083093;28;20254;-81
2024/02/16 12:47:37;;;;;;;2.97;2.67;;;;;;;;;;5092878;28;20193;-81
2024/02/16 12:50:09;;;;;;;3.97;3.37;;;;;;;;;;5103306;28;20245;-81
2024/02/16 12:52:38;;;;;;;2.83;2.60;;;;;;;;;;5094634;28;20202;-80
2024/02/16 12:55:06;;;;;;;2.83;2.60;;;;;;;;;;5092542;28;20196;-84
2024/02/16 12:57:33;;;;;;;2.93;2.73;;;;;;;;;;5092660;28;20192;-80
2024/02/16 13:00:00;;;;;;;2.90;2.60;;;;;;;;;;5093275;28;20546;-80
2024/02/16 13:02:27;;;;;;;6.30;4.70;;;;;;;;;;5092409;28;20207;-81
2024/02/16 13:04:54;;;;;;;5.93;5.00;;;;;;;;;;5104778;28;20200;-81
2024/02/16 13:07:22;;;;;;;2.50;2.27;;;;;;;;;;5093287;28;20573;-81
2024/02/16 13:09:50;;;;;;;4.10;3.70;;;;;;;;;;5092529;28;20227;-82
2024/02/16 13:12:17;;;;;;;4.33;3.10;;;;;;;;;;5092352;28;20593;-81
2024/02/16 13:14:44;;;;;;;4.47;3.20;;;;;;;;;;5092849;28;20204;-81
2024/02/16 13:17:11;;;;;;;5.80;4.87;;;;;;;;;;5092259;28;20203;-81
2024/02/16 13:19:40;;;;;;;3.27;2.87;;;;;;;;;;5092546;28;20204;-81
2024/02/16 13:22:07;;;;;;;2.90;2.47;;;;;;;;;;5087472;28;20198;-81
2024/02/16 13:24:35;;;;;;;3.17;2.60;;;;;;;;;;5098024;28;20203;-81
2024/02/16 13:27:02;;;;;;;2.37;2.17;;;;;;;;;;5099686;28;20195;-81
2024/02/16 13:29:29;;;;;;;2.17;2.07;;;;;;;;;;5085357;28;20225;-81
2024/02/16 13:31:55;;;;;;;3.20;2.20;;;;;;;;;;5104717;28;20196;-81
2024/02/16 13:34:22;;;;;;;4.77;3.83;;;;;;;;;;5092152;28;20215;-81
2024/02/16 13:36:49;;;;;;;3.23;2.97;;;;;;;;;;5100876;28;20577;-81
2024/02/16 13:39:17;;;;;;;5.13;3.27;;;;;;;;;;5082790;28;20655;-80
2024/02/16 13:41:47;;;;;;;4.43;3.33;;;;;;;;;;5080296;28;20197;-81
2024/02/16 13:44:14;;;;;;;4.03;2.70;;;;;;;;;;5091950;28;20207;-81
2024/02/16 13:46:40;;;;;;;8.07;5.60;;;;;;;;;;5091825;28;20667;-81
2024/02/16 13:49:07;;;;;;;23.33;15.40;;;;;;;;;;5091139;28;20735;-81
2024/02/16 13:51:34;;;;;;;5.13;3.83;;;;;;;;;;5092378;28;20219;-80
2024/02/16 13:54:01;;;;;;;14.40;8.67;;;;;;;;;;5078445;28;20257;-81
2024/02/16 13:56:27;;;;;;;3.60;3.07;;;;;;;;;;5092041;28;20610;-81
2024/02/16 13:58:55;;;;;;;3.10;2.80;;;;;;;;;;5091836;28;20188;-81
2024/02/16 14:01:23;;;;;;;3.17;2.87;;;;;;;;;;5101544;28;20193;-81
2024/02/16 14:03:51;;;;;;;3.03;2.53;;;;;;;;;;5093983;28;20196;-81
2024/02/16 14:06:17;;;;;;;8.57;3.37;;;;;;;;;;5091533;28;20201;-81
2024/02/16 14:08:44;;;;;;;4.67;3.10;;;;;;;;;;5101176;28;20258;-82
2024/02/16 14:11:11;;;;;;;2.83;2.63;;;;;;;;;;5093460;28;20211;-81
2024/02/16 14:13:39;;;;;;;4.77;3.00;;;;;;;;;;5098392;28;20604;-81
2024/02/16 14:16:10;;;;;;;5.87;2.97;;;;;;;;;;5111627;28;20192;-80
2024/02/16 14:18:36;;;;;;;2.43;2.23;;;;;;;;;;5092260;28;20188;-81
2024/02/16 14:21:03;;;;;;;3.70;3.40;;;;;;;;;;5091305;28;20204;-81
2024/02/16 14:23:31;;;;;;;3.57;3.27;;;;;;;;;;5104772;28;20200;-82
2024/02/16 14:25:58;;;;;;;3.17;2.97;;;;;;;;;;5102575;28;20727;-81
2024/02/16 14:28:25;;;;;;;3.40;3.10;;;;;;;;;;5078494;28;20614;-81
2024/02/16 14:30:52;;;;;;;2.60;2.40;;;;;;;;;;5091591;28;20228;-82
2024/02/16 14:33:20;;;;;;;4.67;4.27;;;;;;;;;;5111063;28;20272;-81
2024/02/16 14:35:48;;;;;;;12.13;8.77;;;;;;;;;;5098787;28;20200;-81
2024/02/16 14:38:15;;;;;;;3.73;3.43;;;;;;;;;;5091243;28;20218;-81
2024/02/16 14:40:42;;;;;;;4.60;4.17;;;;;;;;;;5091182;28;20208;-81
2024/02/16 14:43:08;;;;;;;3.90;3.30;;;;;;;;;;5078097;28;20193;-81
2024/02/16 14:45:38;;;;;;;3.53;3.23;;;;;;;;;;5090628;28;20254;-81
2024/02/16 14:48:07;;;;;;;3.67;3.37;;;;;;;;;;5090893;28;20196;-81